createdAt,value
2023-02-23T00:01:44.909Z,6.27
2023-02-23T00:04:14.496Z,6.26
2023-02-23T00:06:43.884Z,6.25
2023-02-23T00:09:15.062Z,6.22
2023-02-23T00:11:44.864Z,6.24
2023-02-23T00:14:14.684Z,6.22
2023-02-23T00:16:47.134Z,6.20
2023-02-23T00:19:15.842Z,6.23
2023-02-23T00:21:45.544Z,6.22
2023-02-23T00:24:16.884Z,6.19
2023-02-23T00:26:48.263Z,6.19
2023-02-23T00:29:20.783Z,6.24
2023-02-23T00:31:50.061Z,6.22
2023-02-23T00:34:24.196Z,6.19
2023-02-23T00:36:55.497Z,6.19
2023-02-23T00:39:26.945Z,6.16
2023-02-23T00:41:57.231Z,6.21
2023-02-23T00:44:26.470Z,6.17
2023-02-23T00:46:55.967Z,6.14
2023-02-23T00:49:25.300Z,6.10
2023-02-23T00:51:55.077Z,6.10
2023-02-23T00:54:24.359Z,6.11
2023-02-23T00:56:53.710Z,6.07
2023-02-23T00:59:24.514Z,6.10
2023-02-23T01:01:54.073Z,6.09
2023-02-23T01:04:26.055Z,6.05
2023-02-23T01:06:57.061Z,6.05
2023-02-23T01:09:28.368Z,6.07
2023-02-23T01:12:00.020Z,6.04
2023-02-23T01:14:31.318Z,6.05
2023-02-23T01:17:01.378Z,6.07
2023-02-23T01:19:32.247Z,6.06
2023-02-23T01:22:04.664Z,6.06
2023-02-23T01:24:34.248Z,6.06
2023-02-23T01:27:05.338Z,6.05
2023-02-23T01:29:36.083Z,6.03
2023-02-23T01:32:05.819Z,6.00
2023-02-23T01:34:35.273Z,5.98
2023-02-23T01:37:04.810Z,5.95
2023-02-23T01:39:34.244Z,5.96
2023-02-23T01:42:05.427Z,5.94
2023-02-23T01:44:39.605Z,5.92
2023-02-23T01:47:08.995Z,5.94
2023-02-23T01:49:38.393Z,5.96
2023-02-23T01:52:12.578Z,5.99
2023-02-23T01:54:51.421Z,5.95
2023-02-23T01:57:24.504Z,5.96
2023-02-23T01:59:55.114Z,5.98
2023-02-23T02:02:29.190Z,5.96
2023-02-23T02:05:01.976Z,5.96
2023-02-23T02:07:34.324Z,5.97
2023-02-23T02:10:14.569Z,5.98
2023-02-23T02:12:51.333Z,6.02
2023-02-23T02:15:23.676Z,6.02
2023-02-23T02:18:19.008Z,6.02
2023-02-23T02:21:11.854Z,6.03
2023-02-23T02:24:04.301Z,6.01
2023-02-23T02:26:55.318Z,5.97
2023-02-23T02:29:56.118Z,5.97
2023-02-23T02:32:50.042Z,5.94
2023-02-23T02:35:47.090Z,5.96
2023-02-23T02:38:27.900Z,5.95
2023-02-23T02:41:09.147Z,5.95
2023-02-23T02:43:58.566Z,5.94
2023-02-23T02:46:33.659Z,5.93
2023-02-23T02:49:06.919Z,5.90
2023-02-23T02:51:49.092Z,5.89
2023-02-23T02:54:33.520Z,5.90
2023-02-23T02:57:04.972Z,5.89
2023-02-23T03:00:03.679Z,5.88
2023-02-23T03:02:52.870Z,5.88
2023-02-23T03:05:43.192Z,5.91
2023-02-23T03:09:06.752Z,5.90
2023-02-23T03:12:03.485Z,5.92
2023-02-23T03:15:09.308Z,5.97
2023-02-23T03:18:09.665Z,5.97
2023-02-23T03:21:02.806Z,5.94
2023-02-23T03:24:03.121Z,5.94
2023-02-23T03:26:56.507Z,5.98
2023-02-23T03:29:54.675Z,5.98
2023-02-23T03:32:48.161Z,5.98
2023-02-23T03:35:59.750Z,5.98
2023-02-23T03:39:02.621Z,5.94
2023-02-23T03:41:50.282Z,5.96
2023-02-23T03:44:40.481Z,5.98
2023-02-23T03:47:28.887Z,5.99
2023-02-23T03:50:17.317Z,6.01
2023-02-23T03:53:07.561Z,6.03
2023-02-23T03:55:56.916Z,5.99
2023-02-23T03:58:59.350Z,5.98
2023-02-23T04:01:46.759Z,5.94
2023-02-23T04:04:35.123Z,5.92
2023-02-23T04:07:22.997Z,5.92
2023-02-23T04:10:10.677Z,5.92
2023-02-23T04:13:03.471Z,5.77
2023-02-23T04:15:37.300Z,5.90
2023-02-23T04:18:07.602Z,5.92
2023-02-23T04:20:37.117Z,5.92
2023-02-23T04:23:06.403Z,5.89
2023-02-23T04:25:36.026Z,5.88
2023-02-23T04:28:05.410Z,5.90
2023-02-23T04:30:35.046Z,5.92
2023-02-23T04:33:04.486Z,5.87
2023-02-23T04:35:34.109Z,5.86
2023-02-23T04:38:03.655Z,5.83
2023-02-23T04:40:33.588Z,5.81
2023-02-23T04:43:02.870Z,5.81
2023-02-23T04:45:32.261Z,5.77
2023-02-23T04:48:01.878Z,5.74
2023-02-23T04:50:32.597Z,5.73
2023-02-23T04:53:02.023Z,5.71
2023-02-23T04:55:32.816Z,5.73
2023-02-23T04:58:03.281Z,5.74
2023-02-23T05:00:34.060Z,5.74
2023-02-23T05:03:03.468Z,5.79
2023-02-23T05:05:33.508Z,5.84
2023-02-23T05:08:02.914Z,5.82
2023-02-23T05:10:32.149Z,5.81
2023-02-23T05:13:01.483Z,5.84
2023-02-23T05:15:30.932Z,5.87
2023-02-23T05:18:00.392Z,5.86
2023-02-23T05:20:29.717Z,5.85
2023-02-23T05:22:59.438Z,5.83
2023-02-23T05:25:28.689Z,5.81
2023-02-23T05:27:58.103Z,5.78
2023-02-23T05:30:27.497Z,5.77
2023-02-23T05:32:56.966Z,5.74
2023-02-23T05:35:26.401Z,5.78
2023-02-23T05:37:55.981Z,5.80
2023-02-23T05:40:25.586Z,5.81
2023-02-23T05:42:58.373Z,5.80
2023-02-23T05:45:27.623Z,5.84
2023-02-23T05:47:57.419Z,5.80
2023-02-23T05:50:27.175Z,5.73
2023-02-23T05:52:56.710Z,5.69
2023-02-23T05:55:26.062Z,5.67
2023-02-23T05:57:56.165Z,5.61
2023-02-23T06:00:25.677Z,5.59
2023-02-23T06:02:55.674Z,5.58
2023-02-23T06:05:25.199Z,5.57
2023-02-23T06:07:54.413Z,5.56
2023-02-23T06:10:24.075Z,5.54
2023-02-23T06:12:53.296Z,5.52
2023-02-23T06:15:22.666Z,5.53
2023-02-23T06:17:51.948Z,5.55
2023-02-23T06:20:26.145Z,5.52
2023-02-23T06:22:55.475Z,5.52
2023-02-23T06:25:25.442Z,5.51
2023-02-23T06:27:57.558Z,5.49
2023-02-23T06:30:27.100Z,5.48
2023-02-23T06:32:56.783Z,5.43
2023-02-23T06:35:27.659Z,5.42
2023-02-23T06:37:57.428Z,5.43
2023-02-23T06:40:26.945Z,5.44
2023-02-23T06:42:56.543Z,5.47
2023-02-23T06:45:25.786Z,5.48
2023-02-23T06:47:55.389Z,5.51
2023-02-23T06:50:24.733Z,5.52
2023-02-23T06:52:54.461Z,5.56
2023-02-23T06:55:24.287Z,5.60
2023-02-23T06:57:54.585Z,5.57
2023-02-23T07:00:24.862Z,5.56
2023-02-23T07:02:54.187Z,5.57
2023-02-23T07:05:23.737Z,5.53
2023-02-23T07:07:53.308Z,5.57
2023-02-23T07:10:22.858Z,5.73
2023-02-23T07:12:54.192Z,5.82
2023-02-23T07:15:23.508Z,5.89
2023-02-23T07:17:53.009Z,5.89
2023-02-23T07:20:22.905Z,5.91
2023-02-23T07:22:52.771Z,5.96
2023-02-23T07:25:22.547Z,5.95
2023-02-23T07:27:55.703Z,5.98
2023-02-23T07:30:27.759Z,6.00
2023-02-23T07:33:01.278Z,6.04
2023-02-23T07:35:39.142Z,6.09
2023-02-23T07:38:18.848Z,6.14
2023-02-23T07:40:55.154Z,6.17
2023-02-23T07:43:39.107Z,6.17
2023-02-23T07:46:09.225Z,6.20
2023-02-23T07:48:42.625Z,6.18
2023-02-23T07:51:27.821Z,6.23
2023-02-23T07:53:57.488Z,6.24
2023-02-23T07:56:27.528Z,6.21
2023-02-23T07:58:56.834Z,6.24
2023-02-23T08:01:26.522Z,6.22
2023-02-23T08:03:56.069Z,6.21
2023-02-23T08:06:25.768Z,6.21
2023-02-23T08:08:55.648Z,6.19
2023-02-23T08:11:25.230Z,6.19
2023-02-23T08:13:55.185Z,6.27
2023-02-23T08:16:24.494Z,6.35
2023-02-23T08:18:54.054Z,6.38
2023-02-23T08:21:23.327Z,6.42
2023-02-23T08:23:52.658Z,6.49
2023-02-23T08:26:25.837Z,6.48
2023-02-23T08:28:56.124Z,6.51
2023-02-23T08:31:27.286Z,6.54
2023-02-23T08:33:56.666Z,6.58
2023-02-23T08:36:26.519Z,6.66
2023-02-23T08:38:55.736Z,6.70
2023-02-23T08:41:25.934Z,6.75
2023-02-23T08:43:55.660Z,6.74
2023-02-23T08:46:25.472Z,6.76
2023-02-23T08:48:54.711Z,6.88
2023-02-23T08:51:24.256Z,6.87
2023-02-23T08:53:53.769Z,6.92
2023-02-23T08:56:24.778Z,7.07
2023-02-23T08:58:54.298Z,7.17
2023-02-23T09:01:23.569Z,7.12
2023-02-23T09:03:53.122Z,7.14
2023-02-23T09:06:25.438Z,7.19
2023-02-23T09:08:56.256Z,7.20
2023-02-23T09:11:25.575Z,7.08
2023-02-23T09:13:55.531Z,7.14
2023-02-23T09:16:25.444Z,7.31
2023-02-23T09:18:54.953Z,7.27
2023-02-23T09:21:26.034Z,7.40
2023-02-23T09:23:56.250Z,7.33
2023-02-23T09:26:27.655Z,7.47
2023-02-23T09:28:58.828Z,7.63
2023-02-23T09:31:28.735Z,7.59
2023-02-23T09:33:59.642Z,7.47
2023-02-23T09:36:31.581Z,7.43
2023-02-23T09:39:01.485Z,7.50
2023-02-23T09:41:46.052Z,7.54
2023-02-23T09:44:39.745Z,7.59
2023-02-23T09:47:30.821Z,7.50
2023-02-23T09:50:05.823Z,7.74
2023-02-23T09:52:38.959Z,7.88
2023-02-23T09:55:11.685Z,8.11
2023-02-23T09:57:44.083Z,8.15
2023-02-23T10:00:19.527Z,8.08
2023-02-23T10:03:04.150Z,8.07
2023-02-23T10:05:36.575Z,7.88
2023-02-23T10:08:11.617Z,7.88
2023-02-23T10:11:02.339Z,7.54
2023-02-23T10:13:45.779Z,7.65
2023-02-23T10:16:36.396Z,7.63
2023-02-23T10:19:12.998Z,7.62
2023-02-23T10:21:45.075Z,8.05
2023-02-23T10:24:31.456Z,7.86
2023-02-23T10:27:20.915Z,7.91
2023-02-23T10:29:52.698Z,7.98
2023-02-23T10:32:25.321Z,7.99
2023-02-23T10:34:56.883Z,7.89
2023-02-23T10:37:27.704Z,7.72
2023-02-23T10:39:57.245Z,7.70
2023-02-23T10:42:30.069Z,7.84
2023-02-23T10:45:00.980Z,8.13
2023-02-23T10:47:32.518Z,9.08
2023-02-23T10:50:02.457Z,9.65
2023-02-23T10:52:41.710Z,9.00
2023-02-23T10:55:10.841Z,8.71
2023-02-23T10:57:41.315Z,8.31
2023-02-23T11:00:24.147Z,8.28
2023-02-23T11:02:52.650Z,8.51
2023-02-23T11:05:40.088Z,9.00
2023-02-23T11:08:33.269Z,9.43
2023-02-23T11:11:19.225Z,10.30
2023-02-23T11:13:52.238Z,9.94
2023-02-23T11:16:26.793Z,10.28
2023-02-23T11:19:01.575Z,10.84
2023-02-23T11:21:36.986Z,10.39
2023-02-23T11:24:09.550Z,9.70
2023-02-23T11:26:39.111Z,9.38
2023-02-23T11:29:29.680Z,9.22
2023-02-23T11:32:00.162Z,9.24
2023-02-23T11:34:33.147Z,9.25
2023-02-23T11:37:07.976Z,9.53
2023-02-23T11:39:38.912Z,9.84
2023-02-23T11:42:17.528Z,9.65
2023-02-23T11:44:52.343Z,9.75
2023-02-23T11:47:23.337Z,9.95
2023-02-23T11:49:53.212Z,9.53
2023-02-23T11:52:23.802Z,9.35
2023-02-23T11:54:58.903Z,9.06
2023-02-23T11:57:31.998Z,8.94
2023-02-23T12:00:04.600Z,8.63
2023-02-23T12:02:40.697Z,8.43
2023-02-23T12:05:25.331Z,8.29
2023-02-23T12:08:09.646Z,8.29
2023-02-23T12:10:51.183Z,8.11
2023-02-23T12:13:29.403Z,8.03
2023-02-23T12:16:21.741Z,7.93
2023-02-23T12:19:03.306Z,7.98
2023-02-23T12:21:35.915Z,8.10
2023-02-23T12:24:18.620Z,8.20
2023-02-23T12:26:52.730Z,8.36
2023-02-23T12:29:59.523Z,8.33
2023-02-23T12:32:32.492Z,8.13
2023-02-23T12:35:07.990Z,7.95
2023-02-23T12:37:46.140Z,7.89
2023-02-23T12:40:18.458Z,7.94
2023-02-23T12:42:56.847Z,7.83
2023-02-23T12:45:32.085Z,7.48
2023-02-23T12:48:10.042Z,7.42
2023-02-23T12:50:43.615Z,7.39
2023-02-23T12:53:19.037Z,7.42
2023-02-23T12:56:01.670Z,7.53
2023-02-23T12:58:50.304Z,7.50
2023-02-23T13:01:27.167Z,7.53
2023-02-23T13:04:08.992Z,7.57
2023-02-23T13:06:53.422Z,7.55
2023-02-23T13:09:29.208Z,7.71
2023-02-23T13:12:10.476Z,7.81
2023-02-23T13:15:08.338Z,7.78
2023-02-23T13:17:43.867Z,7.82
2023-02-23T13:20:28.764Z,7.74
2023-02-23T13:23:01.182Z,7.65
2023-02-23T13:25:54.201Z,7.58
2023-02-23T13:28:24.329Z,7.52
2023-02-23T13:30:53.914Z,7.54
2023-02-23T13:33:35.011Z,7.50
2023-02-23T13:35:58.267Z,7.48
2023-02-23T13:38:33.861Z,7.54
2023-02-23T13:41:12.806Z,7.68
2023-02-23T13:43:52.226Z,7.71
2023-02-23T13:46:48.465Z,7.78
2023-02-23T13:49:39.360Z,8.09
2023-02-23T13:52:14.566Z,8.18
2023-02-23T13:54:57.053Z,8.28
2023-02-23T13:57:28.238Z,8.51
2023-02-23T13:59:58.479Z,8.53
2023-02-23T14:02:38.882Z,8.42
2023-02-23T14:05:14.139Z,8.23
2023-02-23T14:07:45.221Z,8.23
2023-02-23T14:10:25.670Z,8.10
2023-02-23T14:13:07.356Z,8.24
2023-02-23T14:15:40.212Z,8.30
2023-02-23T14:18:26.253Z,8.35
2023-02-23T14:21:18.835Z,8.29
2023-02-23T14:24:15.107Z,8.35
2023-02-23T14:26:47.384Z,8.40
2023-02-23T14:29:20.548Z,8.41
2023-02-23T14:32:03.651Z,8.45
2023-02-23T14:34:52.305Z,8.51
2023-02-23T14:37:27.077Z,8.48
2023-02-23T14:40:00.710Z,8.38
2023-02-23T14:42:30.361Z,8.27
2023-02-23T14:45:02.763Z,8.09
2023-02-23T14:47:35.314Z,8.12
2023-02-23T14:50:04.883Z,7.92
2023-02-23T14:52:40.626Z,7.85
2023-02-23T14:55:15.753Z,7.87
2023-02-23T14:57:45.620Z,7.86
2023-02-23T15:00:31.034Z,7.83
2023-02-23T15:03:10.431Z,7.91
2023-02-23T15:05:54.808Z,7.87
2023-02-23T15:08:26.316Z,7.93
2023-02-23T15:11:07.486Z,7.97
2023-02-23T15:16:11.933Z,8.03
2023-02-23T15:18:44.064Z,8.04
2023-02-23T15:21:19.193Z,8.30
2023-02-23T15:23:54.837Z,8.32
2023-02-23T15:26:31.068Z,8.37
2023-02-23T15:29:14.638Z,8.33
2023-02-23T15:31:52.839Z,8.26
2023-02-23T15:34:25.166Z,8.39
2023-02-23T15:37:00.511Z,8.32
2023-02-23T15:39:48.215Z,8.30
2023-02-23T15:42:19.613Z,8.18
2023-02-23T15:44:57.529Z,8.11
2023-02-23T15:47:29.483Z,7.99
2023-02-23T15:50:05.620Z,7.92
2023-02-23T15:52:36.464Z,7.86
2023-02-23T15:55:10.246Z,7.83
2023-02-23T15:57:57.169Z,7.78
2023-02-23T16:00:40.808Z,7.74
2023-02-23T16:03:29.859Z,7.71
2023-02-23T16:06:11.323Z,7.64
2023-02-23T16:08:43.858Z,7.67
2023-02-23T16:11:16.031Z,7.62
2023-02-23T16:13:46.399Z,7.59
2023-02-23T16:16:19.657Z,7.57
2023-02-23T16:18:53.921Z,7.53
2023-02-23T16:21:25.300Z,7.53
2023-02-23T16:23:55.676Z,7.52
2023-02-23T16:26:29.459Z,7.42
2023-02-23T16:29:00.853Z,7.38
2023-02-23T16:31:48.597Z,7.31
2023-02-23T16:34:29.681Z,7.35
2023-02-23T16:37:01.626Z,7.30
2023-02-23T16:39:34.332Z,7.29
2023-02-23T16:42:04.016Z,7.27
2023-02-23T16:44:42.900Z,7.02
2023-02-23T16:47:08.246Z,6.76
2023-02-23T16:49:37.748Z,6.65
2023-02-23T16:52:11.933Z,6.57
2023-02-23T16:54:41.163Z,6.46
2023-02-23T16:57:14.079Z,6.30
2023-02-23T16:59:43.319Z,6.30
2023-02-23T17:02:14.138Z,6.12
2023-02-23T17:04:45.961Z,5.94
2023-02-23T17:07:17.195Z,5.90
2023-02-23T17:09:47.885Z,5.82
2023-02-23T17:12:21.933Z,5.79
2023-02-23T17:14:51.204Z,5.73
2023-02-23T17:17:21.814Z,5.74
2023-02-23T17:19:51.064Z,5.65
2023-02-23T17:22:20.436Z,5.66
2023-02-23T17:24:49.873Z,5.62
2023-02-23T17:27:19.211Z,5.60
2023-02-23T17:29:48.432Z,5.58
2023-02-23T17:32:18.229Z,5.57
2023-02-23T17:34:49.337Z,5.55
2023-02-23T17:37:21.824Z,5.57
2023-02-23T17:39:50.998Z,5.54
2023-02-23T17:42:20.674Z,5.53
2023-02-23T17:44:49.971Z,5.53
2023-02-23T17:47:20.047Z,5.46
2023-02-23T17:49:49.349Z,5.43
2023-02-23T17:52:19.605Z,5.41
2023-02-23T17:54:49.097Z,5.42
2023-02-23T17:57:18.696Z,5.41
2023-02-23T17:59:47.971Z,5.38
2023-02-23T18:02:20.574Z,5.39
2023-02-23T18:04:51.434Z,5.36
2023-02-23T18:07:22.280Z,5.30
2023-02-23T18:09:51.739Z,5.28
2023-02-23T18:12:21.776Z,5.22
2023-02-23T18:14:51.095Z,5.19
2023-02-23T18:17:20.680Z,5.16
2023-02-23T18:19:51.056Z,5.14
2023-02-23T18:22:20.871Z,5.15
2023-02-23T18:24:50.086Z,5.15
2023-02-23T18:27:19.423Z,5.14
2023-02-23T18:29:48.636Z,5.10
2023-02-23T18:32:18.421Z,5.08
2023-02-23T18:34:47.973Z,4.94
2023-02-23T18:37:18.888Z,5.07
2023-02-23T18:39:49.899Z,5.09
2023-02-23T18:42:19.404Z,5.06
2023-02-23T18:44:48.958Z,5.02
2023-02-23T18:47:18.299Z,5.00
2023-02-23T18:49:47.682Z,5.05
2023-02-23T18:52:17.022Z,5.04
2023-02-23T18:54:46.269Z,4.99
2023-02-23T18:57:16.034Z,4.97
2023-02-23T18:59:47.479Z,5.00
2023-02-23T19:02:18.713Z,4.94
2023-02-23T19:04:48.112Z,4.87
2023-02-23T19:07:18.738Z,4.88
2023-02-23T19:09:48.187Z,4.87
2023-02-23T19:12:17.408Z,4.82
2023-02-23T19:14:49.842Z,4.81
2023-02-23T19:17:17.946Z,4.79
2023-02-23T19:19:47.347Z,4.75
2023-02-23T19:22:17.191Z,4.76
2023-02-23T19:24:47.085Z,4.76
2023-02-23T19:27:17.612Z,4.74
2023-02-23T19:29:47.652Z,4.74
2023-02-23T19:32:18.101Z,4.69
2023-02-23T19:34:47.633Z,4.64
2023-02-23T19:37:16.876Z,4.58
2023-02-23T19:39:46.386Z,4.56
2023-02-23T19:42:17.322Z,4.56
2023-02-23T19:44:46.812Z,4.54
2023-02-23T19:47:16.120Z,4.51
2023-02-23T19:49:45.814Z,4.45
2023-02-23T19:52:15.149Z,4.39
2023-02-23T19:54:44.788Z,4.36
2023-02-23T19:57:14.112Z,4.32
2023-02-23T19:59:43.815Z,4.35
2023-02-23T20:02:13.339Z,4.27
2023-02-23T20:04:42.770Z,4.19
2023-02-23T20:07:12.048Z,4.15
2023-02-23T20:09:41.609Z,4.14
2023-02-23T20:12:10.978Z,4.06
2023-02-23T20:14:41.615Z,4.00
2023-02-23T20:17:12.514Z,4.01
2023-02-23T20:19:41.902Z,3.88
2023-02-23T20:22:11.309Z,3.77
2023-02-23T20:24:40.650Z,3.72
2023-02-23T20:27:10.259Z,3.59
2023-02-23T20:29:39.949Z,3.44
2023-02-23T20:32:09.716Z,3.35
2023-02-23T20:34:39.393Z,3.27
2023-02-23T20:37:09.150Z,3.21
2023-02-23T20:39:38.555Z,3.09
2023-02-23T20:44:48.294Z,3.02
2023-02-23T20:47:17.725Z,2.89
2023-02-23T20:49:46.990Z,2.90
2023-02-23T20:52:16.500Z,2.96
2023-02-23T20:54:46.148Z,3.02
2023-02-23T20:57:15.496Z,3.06
2023-02-23T20:59:45.239Z,3.05
2023-02-23T21:02:15.444Z,3.07
2023-02-23T21:04:45.322Z,3.09
2023-02-23T21:07:14.770Z,3.14
2023-02-23T21:09:44.214Z,3.25
2023-02-23T21:12:13.943Z,3.27
2023-02-23T21:14:43.653Z,3.15
2023-02-23T21:17:12.941Z,3.01
2023-02-23T21:19:42.233Z,2.91
2023-02-23T21:22:13.096Z,2.70
2023-02-23T21:24:43.510Z,2.68
2023-02-23T21:27:13.173Z,2.58
2023-02-23T21:29:43.823Z,2.44
2023-02-23T21:32:14.493Z,2.34
2023-02-23T21:34:45.929Z,2.26
2023-02-23T21:37:16.033Z,2.04
2023-02-23T21:39:47.072Z,1.95
2023-02-23T21:42:16.450Z,1.89
2023-02-23T21:44:50.025Z,1.92
2023-02-23T21:47:21.190Z,2.03
2023-02-23T21:49:55.256Z,2.07
2023-02-23T21:52:24.919Z,2.05
2023-02-23T21:54:55.095Z,2.08
2023-02-23T21:57:26.528Z,2.15
2023-02-23T21:59:57.564Z,2.06
2023-02-23T22:02:30.030Z,2.10
2023-02-23T22:05:01.330Z,2.06
2023-02-23T22:07:32.323Z,2.05
2023-02-23T22:10:03.236Z,2.12
2023-02-23T22:12:35.325Z,2.14
2023-02-23T22:15:09.612Z,2.18
2023-02-23T22:17:39.626Z,2.21
2023-02-23T22:20:23.037Z,2.21
2023-02-23T22:22:52.698Z,2.23
2023-02-23T22:25:22.099Z,2.32
2023-02-23T22:28:18.935Z,2.32
2023-02-23T22:30:52.170Z,2.26
2023-02-23T22:33:26.379Z,2.32
2023-02-23T22:35:58.165Z,2.32
2023-02-23T22:38:27.562Z,2.29
2023-02-23T22:40:57.308Z,2.17
2023-02-23T22:43:27.611Z,2.07
2023-02-23T22:45:58.412Z,1.93
2023-02-23T22:48:28.779Z,1.78
2023-02-23T22:50:58.920Z,1.71
2023-02-23T22:53:28.986Z,1.77
2023-02-23T22:55:59.614Z,1.72
2023-02-23T22:58:29.140Z,1.62
2023-02-23T23:01:05.801Z,1.65
2023-02-23T23:03:45.109Z,1.64
2023-02-23T23:06:22.208Z,1.51
2023-02-23T23:08:54.648Z,1.39
2023-02-23T23:11:26.775Z,1.22
2023-02-23T23:14:00.529Z,1.28
2023-02-23T23:16:33.370Z,1.19
2023-02-23T23:19:07.497Z,1.29
2023-02-23T23:21:37.367Z,1.38
2023-02-23T23:24:08.142Z,1.32
2023-02-23T23:26:39.784Z,1.40
2023-02-23T23:29:12.067Z,1.33
2023-02-23T23:31:45.950Z,1.26
2023-02-23T23:34:22.476Z,1.03
2023-02-23T23:36:53.372Z,1.02
2023-02-23T23:39:26.458Z,1.09
2023-02-23T23:41:55.767Z,1.27
2023-02-23T23:44:29.945Z,1.31
2023-02-23T23:46:59.684Z,1.35
2023-02-23T23:49:29.195Z,1.40
2023-02-23T23:51:58.399Z,1.42
2023-02-23T23:54:31.093Z,1.51
2023-02-23T23:57:01.982Z,1.56
2023-02-23T23:59:32.670Z,1.69
